Terminal Aerodrome Forecast
Issued by NWS

Home | Current Version | Previous Version | Graphics & Text | Print | Product List | Glossary On
Versions: 1 2 3 4 5 6 7 8 9 10 11 12 13 14 15 16 17 18 19 20 21
000
FTUS43 KUNR 162320
TAFGCC
TAF
KGCC 162320Z 1700/1724 22007KT P6SM BKN070
     FM170600 28011KT P6SM SCT020 BKN050
     FM171000 31015KT P6SM BKN015
     FM171700 18011KT P6SM SCT100=

USA.gov is the U.S. government's official web portal to all federal, state and local government web resources and services.